Time;durP1;ratioP1;P1;durP2;ratioP2;P2;SDS_P1;SDS_P2;PMS_P1;PMS_P2;Temp;Humidity;BMP_temperature;BMP_pressure;BME280_temperature;BME280_humidity;BME280_pressure;Samples;Min_cycle;Max_cycle;Signal;HPM_P1;HPM_P2
2023/03/20 00:00:33;;;;;;;7.15;5.00;;;;;;;11.46;44.45;101556.22;5041113;28;20056;-69
2023/03/20 00:03:01;;;;;;;8.47;4.93;;;;;;;11.43;44.86;101561.06;5034246;28;20046;-69
2023/03/20 00:05:30;;;;;;;7.32;4.40;;;;;;;11.43;44.38;101563.81;5041445;28;20111;-69
2023/03/20 00:07:58;;;;;;;7.47;5.07;;;;;;;11.41;44.60;101569.41;5045009;28;20483;-69
2023/03/20 00:10:35;;;;;;;8.60;5.60;;;;;;;11.43;44.38;101572.91;5041516;28;20037;-69
2023/03/20 00:13:05;;;;;;;8.05;5.20;;;;;;;11.40;44.56;101575.00;5038916;28;20535;-69
2023/03/20 00:15:37;;;;;;;7.22;4.97;;;;;;;11.40;44.26;101575.00;5037659;28;20067;-69
2023/03/20 00:18:15;;;;;;;8.48;4.72;;;;;;;11.37;43.70;101587.09;5034065;28;20045;-69
2023/03/20 00:20:43;;;;;;;8.48;5.18;;;;;;;11.35;44.06;101580.84;5035637;28;20049;-69
2023/03/20 00:23:11;;;;;;;7.65;4.85;;;;;;;11.33;44.40;101583.72;5041243;28;20485;-69
2023/03/20 00:25:42;;;;;;;7.53;4.68;;;;;;;11.35;44.30;101586.34;5048420;28;20052;-69
2023/03/20 00:28:37;;;;;;;7.45;4.85;;;;;;;11.33;43.97;101588.31;5042744;28;20038;-68
2023/03/20 00:31:14;;;;;;;7.63;4.43;;;;;;;11.30;44.27;101599.53;5039437;28;20053;-69
2023/03/20 00:33:42;;;;;;;6.88;4.32;;;;;;;11.29;44.15;101586.84;5039315;28;20095;-69
2023/03/20 00:36:10;;;;;;;6.35;4.25;;;;;;;11.28;44.06;101596.91;5048353;28;20052;-69
2023/03/20 00:38:40;;;;;;;7.25;4.65;;;;;;;11.28;44.49;101588.69;5041255;28;20056;-69
2023/03/20 00:41:22;;;;;;;6.57;4.25;;;;;;;11.30;44.39;101588.59;5047210;28;20041;-69
2023/03/20 00:43:52;;;;;;;7.25;4.07;;;;;;;11.26;44.13;101585.19;5048028;28;20106;-69
2023/03/20 00:46:20;;;;;;;6.43;3.90;;;;;;;11.26;44.63;101589.81;5045708;28;20052;-69
2023/03/20 00:48:48;;;;;;;6.18;4.00;;;;;;;11.27;44.01;101599.78;5050386;28;20075;-69
2023/03/20 00:51:17;;;;;;;6.20;4.22;;;;;;;11.25;44.64;101597.16;5046875;28;20044;-69
2023/03/20 00:53:45;;;;;;;6.68;4.40;;;;;;;11.25;43.81;101590.78;5039187;28;20056;-69
2023/03/20 00:56:30;;;;;;;7.97;4.55;;;;;;;11.27;43.59;101592.44;5041760;28;20040;-68
2023/03/20 00:59:00;;;;;;;6.10;3.95;;;;;;;11.24;43.84;101583.56;5042839;28;20041;-69
2023/03/20 01:01:29;;;;;;;6.55;4.40;;;;;;;11.23;44.36;101574.47;5046985;28;20045;-69
2023/03/20 01:03:57;;;;;;;5.45;3.67;;;;;;;11.24;44.22;101578.09;5046306;28;20416;-69
2023/03/20 01:06:24;;;;;;;7.30;4.25;;;;;;;11.23;44.12;101571.72;5034129;28;20050;-70
2023/03/20 01:08:52;;;;;;;7.72;4.75;;;;;;;11.23;44.36;101570.84;5039717;28;20090;-69
2023/03/20 01:11:23;;;;;;;7.35;4.70;;;;;;;11.24;44.42;101569.88;5042905;28;20045;-69
2023/03/20 01:13:53;;;;;;;6.88;4.38;;;;;;;11.23;44.40;101566.25;5048457;28;20073;-69
2023/03/20 01:16:23;;;;;;;6.65;4.15;;;;;;;11.23;44.06;101559.91;5044651;28;20049;-69
2023/03/20 01:18:51;;;;;;;7.55;4.85;;;;;;;11.20;44.18;101558.28;5031215;28;20051;-68
2023/03/20 01:21:20;;;;;;;7.25;4.60;;;;;;;11.21;44.26;101554.56;5040415;28;20053;-68
2023/03/20 01:23:50;;;;;;;6.28;4.22;;;;;;;11.22;44.59;101566.41;5048754;28;20048;-69
2023/03/20 01:26:24;;;;;;;7.22;4.40;;;;;;;11.22;44.09;101567.28;5041909;28;20494;-68
2023/03/20 01:28:53;;;;;;;8.00;5.15;;;;;;;11.21;43.92;101572.88;5040756;28;20045;-69
2023/03/20 01:31:21;;;;;;;8.60;4.88;;;;;;;11.17;44.23;101555.78;5039408;28;20128;-69
2023/03/20 01:33:49;;;;;;;8.55;5.03;;;;;;;11.17;43.96;101560.38;5034475;28;20049;-69
2023/03/20 01:36:21;;;;;;;8.35;5.38;;;;;;;11.18;43.88;101548.44;5045363;28;20136;-69
2023/03/20 01:38:55;;;;;;;8.45;5.07;;;;;;;11.17;43.92;101558.53;5035334;28;20049;-69
2023/03/20 01:41:26;;;;;;;8.18;5.10;;;;;;;11.15;43.97;101554.16;5040313;28;20084;-70
2023/03/20 01:43:55;;;;;;;8.23;4.85;;;;;;;11.14;43.96;101560.66;5043778;28;20091;-69
2023/03/20 01:46:25;;;;;;;8.60;5.10;;;;;;;11.13;44.01;101553.44;5036260;28;20077;-69
2023/03/20 01:49:09;;;;;;;7.70;5.18;;;;;;;11.12;44.13;101537.97;5043623;28;20045;-69
2023/03/20 01:51:37;;;;;;;7.15;4.97;;;;;;;11.09;44.24;101546.44;5036526;28;20076;-69
2023/03/20 01:54:15;;;;;;;8.70;5.32;;;;;;;11.10;43.93;101546.31;5044734;28;20041;-70
2023/03/20 01:56:56;;;;;;;8.85;5.30;;;;;;;11.07;44.06;101556.63;5039655;28;20052;-69
2023/03/20 01:59:29;;;;;;;7.70;4.65;;;;;;;11.08;44.14;101556.50;5039113;28;20512;-69
2023/03/20 02:01:58;;;;;;;8.55;5.00;;;;;;;11.06;44.08;101558.50;5041235;28;20577;-70
2023/03/20 02:04:30;;;;;;;8.80;5.00;;;;;;;11.06;43.92;101563.97;5026090;28;20151;-69
2023/03/20 02:07:07;;;;;;;8.20;4.75;;;;;;;11.05;44.28;101567.72;5040432;28;20044;-70
2023/03/20 02:09:39;;;;;;;7.68;4.93;;;;;;;11.02;44.25;101559.75;5029404;28;20705;-69
2023/03/20 02:12:13;;;;;;;9.38;5.43;;;;;;;11.02;43.90;101565.22;5041068;28;20515;-70
2023/03/20 02:14:44;;;;;;;7.65;4.32;;;;;;;11.02;43.85;101562.47;5039645;28;20080;-69
2023/03/20 02:17:21;;;;;;;8.85;5.15;;;;;;;11.00;44.23;101572.66;5042998;28;20075;-69
2023/03/20 02:20:06;;;;;;;8.70;5.38;;;;;;;11.01;43.84;101570.81;5045600;28;20156;-70
2023/03/20 02:23:07;;;;;;;9.27;5.45;;;;;;;10.99;43.93;101574.53;5035282;28;20449;-69
2023/03/20 02:26:12;;;;;;;;;;;;;;;10.71;44.80;101557.66;5040033;28;20468;-70
2023/03/20 02:29:15;;;;;;;6.72;4.13;;;;;;;10.90;44.32;101547.88;5038060;28;20536;-69
2023/03/20 02:32:20;;;;;;;8.32;4.97;;;;;;;10.92;44.37;101554.09;5015067;28;20497;-69
2023/03/20 02:35:05;;;;;;;9.05;5.03;;;;;;;10.92;44.08;101551.38;5034354;28;20067;-70
2023/03/20 02:37:58;;;;;;;9.07;4.85;;;;;;;10.91;44.54;101551.47;5058458;28;20042;-69
2023/03/20 02:40:33;;;;;;;8.27;4.90;;;;;;;10.87;43.92;101548.13;5041914;28;20041;-69
2023/03/20 02:43:08;;;;;;;9.63;5.63;;;;;;;10.88;44.33;101549.88;5041774;28;20060;-69
2023/03/20 02:45:45;;;;;;;9.23;5.72;;;;;;;10.88;44.35;101546.25;5033088;28;20715;-69
2023/03/20 02:48:27;;;;;;;8.93;5.07;;;;;;;10.86;44.26;101556.44;5037898;28;20041;-69
2023/03/20 02:51:00;;;;;;;9.07;5.65;;;;;;;10.84;44.40;101573.00;5041987;28;20056;-69
2023/03/20 02:53:47;;;;;;;10.30;5.68;;;;;;;10.83;44.60;101573.97;5033090;28;20041;-69
2023/03/20 02:56:22;;;;;;;8.10;5.05;;;;;;;10.79;44.43;101577.09;5034882;28;20053;-70
2023/03/20 02:58:54;;;;;;;8.50;5.68;;;;;;;10.80;44.49;101573.38;5042707;28;20045;-69
2023/03/20 03:01:30;;;;;;;8.98;5.75;;;;;;;10.78;44.37;101578.09;5035447;28;20131;-70
2023/03/20 03:04:02;;;;;;;9.38;5.45;;;;;;;10.78;44.77;101573.47;5042825;28;20217;-70
2023/03/20 03:06:32;;;;;;;8.82;5.50;;;;;;;10.75;44.64;101567.34;5039483;28;21915;-70
2023/03/20 03:09:05;;;;;;;9.68;5.50;;;;;;;10.77;44.76;101571.72;5043104;28;20033;-70
2023/03/20 03:11:38;;;;;;;9.07;5.72;;;;;;;10.76;44.49;101572.72;5036645;28;20055;-70
2023/03/20 03:14:08;;;;;;;8.82;5.47;;;;;;;10.74;44.72;101584.75;5046521;28;20098;-69
2023/03/20 03:16:38;;;;;;;10.10;5.55;;;;;;;10.75;44.38;101589.25;5028193;28;20044;-70
2023/03/20 03:19:09;;;;;;;9.90;6.10;;;;;;;10.75;44.45;101581.91;5039461;28;20099;-69
2023/03/20 03:21:40;;;;;;;9.73;5.82;;;;;;;10.74;44.46;101574.69;5029214;28;20045;-70
2023/03/20 03:24:26;;;;;;;9.95;5.95;;;;;;;10.74;44.77;101551.91;5038634;28;20049;-69
2023/03/20 03:27:17;;;;;;;9.82;6.05;;;;;;;10.72;44.30;101534.75;5029595;28;20049;-69
2023/03/20 03:29:51;;;;;;;9.50;5.95;;;;;;;10.69;44.24;101532.25;5039359;28;20392;-70
2023/03/20 03:32:26;;;;;;;10.15;6.15;;;;;;;10.68;44.90;101534.09;5032595;28;20103;-70
2023/03/20 03:34:55;;;;;;;10.68;5.57;;;;;;;10.65;44.69;101542.53;5029896;28;20602;-72
2023/03/20 03:37:34;;;;;;;9.27;5.80;;;;;;;10.65;44.87;101547.19;5039544;28;20049;-70
2023/03/20 03:40:13;;;;;;;9.77;5.97;;;;;;;10.64;44.70;101550.91;5047916;28;20496;-69
2023/03/20 03:42:49;;;;;;;9.02;5.60;;;;;;;10.63;45.02;101549.16;5037083;28;20044;-70
2023/03/20 03:45:23;;;;;;;8.85;5.32;;;;;;;10.62;44.35;101555.63;5033057;28;20080;-70
2023/03/20 03:47:56;;;;;;;9.35;5.90;;;;;;;10.61;44.94;101565.69;5041167;28;20049;-69
2023/03/20 03:50:29;;;;;;;10.32;5.55;;;;;;;10.58;44.48;101575.00;5030132;28;20404;-70
2023/03/20 03:53:04;;;;;;;9.57;5.80;;;;;;;10.59;44.41;101565.78;5033921;28;20107;-69
2023/03/20 03:55:39;;;;;;;9.30;5.82;;;;;;;10.58;44.95;101568.66;5035920;28;20045;-70
2023/03/20 03:58:14;;;;;;;10.57;5.72;;;;;;;10.57;44.50;101567.78;5038741;28;20508;-71
2023/03/20 04:00:46;;;;;;;9.93;5.57;;;;;;;10.55;44.23;101569.78;5035860;28;20345;-69
2023/03/20 04:03:15;;;;;;;10.43;6.07;;;;;;;10.54;44.38;101572.63;5042260;28;20718;-70
2023/03/20 04:05:46;;;;;;;9.77;5.95;;;;;;;10.55;44.11;101564.31;5036231;28;20037;-71
2023/03/20 04:08:15;;;;;;;9.05;5.57;;;;;;;10.55;44.13;101567.03;5044498;28;20470;-71
2023/03/20 04:10:44;;;;;;;9.20;5.28;;;;;;;10.56;44.54;101567.91;5041733;28;20040;-69
2023/03/20 04:13:12;;;;;;;9.43;5.50;;;;;;;10.54;44.84;101569.88;5035038;28;20055;-71
2023/03/20 04:15:40;;;;;;;10.25;6.03;;;;;;;10.55;44.73;101574.38;5040481;28;20123;-69
2023/03/20 04:18:14;;;;;;;10.35;6.35;;;;;;;10.54;44.61;101573.50;5041539;28;20111;-71
2023/03/20 04:20:43;;;;;;;10.73;6.68;;;;;;;10.54;44.19;101565.28;5038012;28;20056;-69
2023/03/20 04:23:11;;;;;;;9.93;6.03;;;;;;;10.52;44.44;101561.75;5045025;28;20041;-68
2023/03/20 04:25:39;;;;;;;10.07;5.88;;;;;;;10.52;43.85;101552.66;5043943;28;20052;-71
2023/03/20 04:28:10;;;;;;;9.60;5.72;;;;;;;10.52;44.11;101555.41;5039161;28;20132;-71
2023/03/20 04:30:55;;;;;;;9.52;5.90;;;;;;;10.51;43.89;101551.78;5037984;28;20556;-70
2023/03/20 04:33:34;;;;;;;9.35;5.43;;;;;;;10.48;43.87;101540.22;5033438;28;20059;-71
2023/03/20 04:36:20;;;;;;;9.35;5.15;;;;;;;10.47;43.92;101539.34;5037942;28;20060;-70
2023/03/20 04:38:49;;;;;;;9.25;5.43;;;;;;;10.47;44.27;101544.81;5043663;28;20480;-71
2023/03/20 04:41:19;;;;;;;9.05;5.47;;;;;;;10.46;44.24;101554.03;5034015;28;20046;-69
2023/03/20 04:43:53;;;;;;;9.43;5.70;;;;;;;10.46;44.00;101543.06;5042750;28;20143;-69
2023/03/20 04:46:22;;;;;;;10.38;6.40;;;;;;;10.45;44.08;101554.13;5042224;28;20132;-70
2023/03/20 04:48:50;;;;;;;10.05;5.95;;;;;;;10.44;43.84;101547.78;5042993;28;20037;-70
2023/03/20 04:51:18;;;;;;;10.23;5.47;;;;;;;10.44;43.97;101552.38;5031181;28;20053;-70
2023/03/20 04:53:51;;;;;;;8.43;4.97;;;;;;;10.41;43.98;101549.88;5041314;28;20095;-69
2023/03/20 04:56:19;;;;;;;8.27;5.57;;;;;;;10.42;43.75;101551.63;5037617;28;20055;-70
2023/03/20 04:58:48;;;;;;;9.95;5.88;;;;;;;10.42;44.30;101546.16;5043401;28;20037;-70
2023/03/20 05:01:22;;;;;;;9.63;5.65;;;;;;;10.42;44.09;101540.66;5037674;28;20057;-69
2023/03/20 05:03:50;;;;;;;9.65;6.18;;;;;;;10.39;44.10;101536.31;5031463;28;20033;-70
2023/03/20 05:06:18;;;;;;;9.32;6.05;;;;;;;10.39;44.32;101532.72;5038564;28;20045;-70
2023/03/20 05:08:46;;;;;;;9.73;5.90;;;;;;;10.39;43.93;101539.06;5035750;28;20694;-71
2023/03/20 05:11:17;;;;;;;9.90;5.60;;;;;;;10.37;43.67;101537.41;5038744;28;20420;-71
2023/03/20 05:14:05;;;;;;;8.73;5.57;;;;;;;10.34;43.82;101541.25;5034810;28;20761;-70
2023/03/20 05:17:12;;;;;;;8.43;4.95;;;;;;;10.34;43.60;101540.38;5038051;28;20511;-69
2023/03/20 05:19:59;;;;;;;9.48;5.47;;;;;;;10.31;43.47;101537.91;5042037;28;20103;-71
2023/03/20 05:22:49;;;;;;;9.32;5.18;;;;;;;10.32;43.47;101531.44;5037475;28;20052;-69
2023/03/20 05:25:33;;;;;;;9.55;5.40;;;;;;;10.27;43.91;101539.09;5039282;28;20048;-69
2023/03/20 05:28:22;;;;;;;10.25;5.35;;;;;;;10.25;43.87;101541.94;5045031;28;20057;-70
2023/03/20 05:31:10;;;;;;;9.07;5.40;;;;;;;10.23;44.01;101550.25;5027130;28;20065;-69
2023/03/20 05:34:04;;;;;;;7.93;5.20;;;;;;;10.23;44.00;101550.25;5040844;28;20095;-70
2023/03/20 05:36:55;;;;;;;8.95;5.78;;;;;;;10.19;44.29;101545.16;5025339;28;20045;-70
2023/03/20 05:39:30;;;;;;;9.40;5.65;;;;;;;10.21;43.77;101556.88;5034710;28;20048;-69
2023/03/20 05:42:12;;;;;;;9.65;6.03;;;;;;;10.19;44.05;101551.50;5036173;28;20076;-69
2023/03/20 05:44:58;;;;;;;9.63;6.13;;;;;;;10.17;44.08;101545.25;5038511;28;20056;-69
2023/03/20 05:47:41;;;;;;;;;;;;;;;9.93;44.59;101551.69;5045954;28;20041;-70
2023/03/20 05:50:25;;;;;;;9.45;5.57;;;;;;;10.14;44.19;101552.84;5041975;28;20303;-69
2023/03/20 05:53:06;;;;;;;9.30;5.97;;;;;;;10.12;44.02;101552.94;5049047;28;20436;-69
2023/03/20 05:56:00;;;;;;;10.45;6.15;;;;;;;10.13;44.26;101548.34;5037085;28;20283;-69
2023/03/20 05:58:41;;;;;;;12.55;6.35;;;;;;;10.13;44.14;101553.84;5045267;28;20385;-69
2023/03/20 06:01:27;;;;;;;11.80;6.68;;;;;;;10.11;43.95;101551.19;5042619;28;20540;-69
2023/03/20 06:04:11;;;;;;;10.77;6.40;;;;;;;10.11;44.08;101558.53;5034526;28;20049;-69
2023/03/20 06:07:06;;;;;;;11.88;6.80;;;;;;;10.10;44.08;101551.31;5020586;28;20049;-69
2023/03/20 06:09:35;;;;;;;10.10;6.50;;;;;;;10.10;44.33;101551.31;5040089;28;20041;-69
2023/03/20 06:12:08;;;;;;;11.13;6.05;;;;;;;10.09;44.37;101555.03;5050049;28;20123;-68
2023/03/20 06:14:37;;;;;;;10.65;5.78;;;;;;;10.09;44.24;101549.56;5040440;28;20045;-68
2023/03/20 06:17:07;;;;;;;11.77;7.05;;;;;;;10.09;44.29;101555.91;5048708;28;20111;-69
2023/03/20 06:19:35;;;;;;;11.82;6.50;;;;;;;10.09;44.34;101560.50;5043936;28;20086;-69
2023/03/20 06:22:03;;;;;;;13.05;6.97;;;;;;;10.11;44.35;101555.78;5046507;28;20040;-69
2023/03/20 06:24:34;;;;;;;12.57;6.72;;;;;;;10.12;44.57;101552.06;5043163;28;20449;-69
2023/03/20 06:27:02;;;;;;;11.52;6.32;;;;;;;10.10;44.58;101549.44;5040921;28;20056;-69
2023/03/20 06:29:30;;;;;;;12.85;6.53;;;;;;;10.11;44.72;101550.31;5048418;28;20040;-69
2023/03/20 06:32:11;;;;;;;12.02;6.68;;;;;;;10.11;44.64;101547.59;5039628;28;20041;-69
2023/03/20 06:34:39;;;;;;;10.15;6.28;;;;;;;10.10;44.88;101549.44;5049188;28;20123;-69
2023/03/20 06:37:07;;;;;;;11.88;6.43;;;;;;;10.11;44.26;101553.94;5044962;28;20051;-69
2023/03/20 06:39:36;;;;;;;11.10;6.47;;;;;;;10.13;44.47;101554.72;5037506;28;20044;-69
2023/03/20 06:42:06;;;;;;;10.27;6.20;;;;;;;10.13;44.05;101553.84;5042855;28;20132;-69
2023/03/20 06:44:36;;;;;;;9.65;6.10;;;;;;;10.12;44.50;101552.94;5041749;28;20049;-69
2023/03/20 06:47:14;;;;;;;11.13;5.72;;;;;;;10.12;44.44;101560.28;5033937;28;20046;-69
2023/03/20 06:49:42;;;;;;;10.30;5.78;;;;;;;10.12;44.45;101561.16;5042266;28;20099;-69
2023/03/20 06:52:16;;;;;;;10.80;5.72;;;;;;;10.14;44.29;101574.72;5049101;28;20036;-69
2023/03/20 06:54:51;;;;;;;9.63;5.40;;;;;;;10.13;44.40;101578.44;5042791;28;20106;-69
2023/03/20 06:57:19;;;;;;;11.75;5.53;;;;;;;10.11;44.34;101589.50;5049742;28;20115;-69
2023/03/20 06:59:47;;;;;;;10.57;5.80;;;;;;;10.11;44.07;101591.34;5039784;28;20048;-71
2023/03/20 07:02:15;;;;;;;9.13;5.30;;;;;;;10.11;44.36;101603.16;5043741;28;20076;-71
2023/03/20 07:04:43;;;;;;;9.55;5.15;;;;;;;10.11;44.21;101599.56;5040844;28;20408;-71
2023/03/20 07:07:11;;;;;;;9.57;5.80;;;;;;;10.11;44.37;101600.44;5039692;28;20128;-70
2023/03/20 07:09:40;;;;;;;8.93;4.70;;;;;;;10.11;44.16;101594.97;5038838;28;20036;-70
2023/03/20 07:12:13;;;;;;;8.02;4.65;;;;;;;10.14;44.25;101602.09;5038403;28;20106;-71
2023/03/20 07:14:43;;;;;;;8.57;5.22;;;;;;;10.12;44.17;101604.03;5041821;28;20136;-71
2023/03/20 07:17:15;;;;;;;7.93;4.43;;;;;;;10.11;44.22;101616.84;5037740;28;20052;-71
2023/03/20 07:19:44;;;;;;;7.18;4.28;;;;;;;10.13;44.35;101619.47;5037266;28;20152;-70
2023/03/20 07:22:21;;;;;;;9.93;4.78;;;;;;;10.17;43.51;101615.50;5039210;28;20065;-71
2023/03/20 07:24:50;;;;;;;8.40;5.28;;;;;;;10.14;43.87;101611.16;5027540;28;20048;-72
2023/03/20 07:27:22;;;;;;;8.35;4.68;;;;;;;10.17;44.05;101620.97;5032933;28;20768;-72
2023/03/20 07:29:53;;;;;;;8.38;4.35;;;;;;;10.15;43.86;101621.09;5041389;28;20041;-73
2023/03/20 07:32:22;;;;;;;7.60;4.45;;;;;;;10.16;43.70;101628.31;5026913;28;20038;-72
2023/03/20 07:34:52;;;;;;;10.77;4.63;;;;;;;10.17;44.08;101621.84;5035265;28;20052;-72
2023/03/20 07:37:20;;;;;;;8.73;4.80;;;;;;;10.16;43.76;101614.63;5036884;28;20390;-72
2023/03/20 07:39:57;;;;;;;7.63;4.45;;;;;;;10.17;44.05;101621.84;5039343;28;20053;-72
2023/03/20 07:42:31;;;;;;;8.80;4.43;;;;;;;10.16;44.06;101620.09;5034966;28;20048;-72
2023/03/20 07:45:08;;;;;;;7.13;4.15;;;;;;;10.18;44.04;101622.72;5035930;28;20757;-72
2023/03/20 07:47:36;;;;;;;8.57;4.40;;;;;;;10.18;43.71;101620.88;5040607;28;20456;-72
2023/03/20 07:50:05;;;;;;;8.93;4.85;;;;;;;10.19;43.97;101628.09;5038936;28;20037;-72
2023/03/20 07:52:35;;;;;;;10.35;5.22;;;;;;;10.20;44.03;101620.75;5041579;28;20075;-72
2023/03/20 07:55:03;;;;;;;8.52;5.13;;;;;;;10.20;43.96;101620.75;5043493;28;20045;-72
2023/03/20 07:57:33;;;;;;;7.57;4.53;;;;;;;10.22;43.87;101627.00;5040481;28;20136;-72
2023/03/20 08:00:07;;;;;;;9.05;4.63;;;;;;;10.22;44.09;101629.75;5037253;28;20546;-72
2023/03/20 08:02:41;;;;;;;9.48;4.60;;;;;;;10.20;43.43;101629.84;5041048;28;20713;-71
2023/03/20 08:05:09;;;;;;;8.10;4.70;;;;;;;10.21;43.71;101639.81;5032566;28;20609;-71
2023/03/20 08:07:37;;;;;;;8.38;4.75;;;;;;;10.21;43.77;101631.59;5040304;28;20037;-71
2023/03/20 08:10:06;;;;;;;8.80;4.57;;;;;;;10.22;43.74;101638.81;5037610;28;20193;-70
2023/03/20 08:12:35;;;;;;;9.48;4.78;;;;;;;10.23;43.48;101640.53;5034972;28;20037;-70
2023/03/20 08:15:04;;;;;;;8.98;4.47;;;;;;;10.23;43.32;101634.22;5036757;28;20038;-71
2023/03/20 08:17:32;;;;;;;7.30;4.38;;;;;;;10.22;43.38;101633.34;5037129;28;20030;-70
2023/03/20 08:20:00;;;;;;;8.32;4.15;;;;;;;10.22;43.39;101637.94;5038094;28;20110;-71
2023/03/20 08:22:28;;;;;;;8.85;4.55;;;;;;;10.23;43.13;101637.81;5035582;28;20045;-71
2023/03/20 08:24:56;;;;;;;8.55;4.30;;;;;;;10.23;43.33;101637.81;5040114;28;20049;-70
2023/03/20 08:27:24;;;;;;;7.07;4.35;;;;;;;10.24;43.23;101642.28;5036131;28;20057;-70
2023/03/20 08:29:53;;;;;;;7.82;4.32;;;;;;;10.27;42.72;101645.78;5033005;28;20065;-71
2023/03/20 08:32:21;;;;;;;8.00;4.60;;;;;;;10.26;42.89;101642.19;5039462;28;20040;-72
2023/03/20 08:34:49;;;;;;;8.32;4.82;;;;;;;10.28;42.91;101648.44;5036427;28;20041;-72
2023/03/20 08:37:18;;;;;;;8.18;4.22;;;;;;;10.28;43.28;101648.44;5037316;28;20049;-71
2023/03/20 08:39:46;;;;;;;7.15;4.10;;;;;;;10.29;42.90;101641.97;5035915;28;20045;-69
2023/03/20 08:42:15;;;;;;;6.78;3.88;;;;;;;10.30;42.61;101646.47;5030384;28;20050;-72
2023/03/20 08:44:43;;;;;;;6.95;4.07;;;;;;;10.30;42.45;101649.19;5039088;28;20045;-71
2023/03/20 08:47:13;;;;;;;6.88;4.10;;;;;;;10.35;42.10;101644.25;5042921;28;20045;-71
2023/03/20 08:49:42;;;;;;;6.00;4.10;;;;;;;10.35;42.23;101649.72;5036388;28;20049;-74
2023/03/20 08:52:09;;;;;;;5.78;3.83;;;;;;;10.37;42.24;101647.75;5042466;28;20049;-72
2023/03/20 08:54:37;;;;;;;6.93;4.00;;;;;;;10.39;42.37;101642.16;5039530;28;20452;-74
2023/03/20 08:57:05;;;;;;;5.93;3.83;;;;;;;10.41;42.06;101634.69;5042098;28;20136;-75
2023/03/20 08:59:33;;;;;;;6.05;3.50;;;;;;;10.42;42.16;101640.06;5031148;28;20120;-74
2023/03/20 09:02:01;;;;;;;6.38;3.75;;;;;;;10.44;42.05;101640.81;5038155;28;20049;-74
2023/03/20 09:04:30;;;;;;;6.10;3.33;;;;;;;10.47;41.25;101643.34;5037539;28;20050;-74
2023/03/20 09:07:00;;;;;;;5.22;3.42;;;;;;;10.45;41.44;101642.56;5043148;28;20061;-74
2023/03/20 09:09:28;;;;;;;5.75;3.53;;;;;;;10.47;41.87;101642.47;5039453;28;20519;-74
2023/03/20 09:11:56;;;;;;;5.90;3.45;;;;;;;10.46;41.62;101654.41;5041378;28;20056;-75
2023/03/20 09:14:25;;;;;;;6.10;3.40;;;;;;;10.46;41.67;101662.63;5044841;28;20045;-74
2023/03/20 09:16:53;;;;;;;5.45;3.03;;;;;;;10.44;41.55;101668.19;5041528;28;20064;-75
2023/03/20 09:19:21;;;;;;;6.70;3.53;;;;;;;10.43;41.03;101658.22;5048245;28;20036;-74
2023/03/20 09:21:51;;;;;;;5.07;2.95;;;;;;;10.44;40.77;101649.03;5034395;28;20064;-74
2023/03/20 09:24:18;;;;;;;7.47;3.30;;;;;;;10.43;41.46;101651.88;5037580;28;20055;-74
2023/03/20 09:26:46;;;;;;;6.07;3.40;;;;;;;10.42;41.15;101641.91;5039051;28;20282;-75
2023/03/20 09:29:14;;;;;;;6.97;3.72;;;;;;;10.43;41.32;101640.94;5046057;28;20237;-75
2023/03/20 09:31:43;;;;;;;6.75;3.40;;;;;;;10.41;40.87;101645.63;5051496;22;20555;31
2023/03/20 09:34:11;;;;;;;5.63;3.10;;;;;;;10.41;41.27;101646.50;5005289;28;20038;-77
2023/03/20 09:36:39;;;;;;;6.50;3.20;;;;;;;10.41;41.19;101643.78;4987615;28;20510;-77
2023/03/20 09:39:08;;;;;;;5.20;2.85;;;;;;;10.45;40.78;101655.38;4992685;28;20042;-78
2023/03/20 09:41:37;;;;;;;6.57;3.10;;;;;;;10.43;40.65;101647.28;5008846;28;20050;-78
2023/03/20 09:44:39;;;;;;;4.47;2.60;;;;;;;10.45;39.89;101650.78;5041281;28;20041;-78
2023/03/20 09:47:16;;;;;;;4.95;2.60;;;;;;;10.45;40.02;101649.91;5030960;28;20049;-78
2023/03/20 09:49:59;;;;;;;6.15;2.50;;;;;;;10.43;40.33;101643.66;5021800;28;20081;-78
2023/03/20 09:52:30;;;;;;;4.22;2.33;;;;;;;10.43;40.19;101647.28;5019867;28;20077;-78
2023/03/20 09:55:06;;;;;;;4.93;2.40;;;;;;;10.42;40.16;101642.78;5016048;28;20038;-77
2023/03/20 09:57:39;;;;;;;4.43;1.90;;;;;;;10.43;39.91;101636.34;5014598;28;20043;-78
2023/03/20 10:00:12;;;;;;;5.22;2.00;;;;;;;10.43;40.31;101651.88;5026215;28;20049;-77
2023/03/20 10:02:47;;;;;;;6.07;2.17;;;;;;;10.46;39.79;101638.84;5014843;28;20042;-78
2023/03/20 10:05:22;;;;;;;5.20;1.85;;;;;;;10.49;39.69;101644.09;5011198;28;20053;-78
2023/03/20 10:07:52;;;;;;;4.90;2.00;;;;;;;10.51;40.00;101647.59;5029393;28;20038;-78
2023/03/20 10:10:27;;;;;;;5.07;2.30;;;;;;;10.51;39.64;101650.31;5013743;28;20049;-78
2023/03/20 10:13:06;;;;;;;4.15;1.75;;;;;;;10.54;39.24;101650.13;5008158;28;20046;-77
2023/03/20 10:15:43;;;;;;;3.75;1.92;;;;;;;10.55;38.78;101651.88;5009372;28;20053;-77
2023/03/20 10:18:20;;;;;;;5.45;1.90;;;;;;;10.55;38.68;101649.16;5031353;28;20068;-77
2023/03/20 10:20:55;;;;;;;4.28;2.53;;;;;;;10.56;39.06;101656.38;5026084;28;20046;-78
2023/03/20 10:23:33;;;;;;;4.38;1.90;;;;;;;10.56;39.20;101650.03;5024569;28;20122;-78
2023/03/20 10:26:10;;;;;;;4.53;1.85;;;;;;;10.57;38.64;101649.88;5014205;28;20540;-78
2023/03/20 10:28:44;;;;;;;3.63;1.88;;;;;;;10.57;39.32;101640.78;5017424;28;20144;-77
2023/03/20 10:31:32;;;;;;;5.25;2.08;;;;;;;10.59;38.20;101647.91;5005304;28;20050;-77
2023/03/20 10:34:13;;;;;;;4.55;1.67;;;;;;;10.61;38.29;101642.34;5024122;28;20038;-76
2023/03/20 10:36:54;;;;;;;4.07;2.00;;;;;;;10.62;38.10;101643.22;5020411;28;20050;-77
2023/03/20 10:39:34;;;;;;;4.60;1.98;;;;;;;10.62;38.25;101645.94;5027329;28;20050;-77
2023/03/20 10:42:13;;;;;;;3.83;1.83;;;;;;;10.64;38.21;101654.94;5015990;28;20429;-77
2023/03/20 10:44:47;;;;;;;4.93;2.00;;;;;;;10.60;38.97;101635.09;5008767;28;20104;-77
2023/03/20 10:47:18;;;;;;;4.32;1.65;;;;;;;10.58;38.64;101640.69;5024007;28;20061;-77
2023/03/20 10:49:50;;;;;;;5.05;2.15;;;;;;;10.57;38.88;101640.78;5019380;28;20076;-77
2023/03/20 10:52:22;;;;;;;4.35;1.88;;;;;;;10.55;38.36;101640.06;5035765;28;20511;-77
2023/03/20 10:54:55;;;;;;;3.83;1.75;;;;;;;10.54;38.63;101630.09;5048657;28;20065;-78
2023/03/20 10:57:25;;;;;;;;;;;;;;;10.27;39.06;101635.72;5025530;28;20053;-77
2023/03/20 10:59:55;;;;;;;4.20;2.20;;;;;;;10.47;39.03;101632.41;5017656;28;19921;-77
2023/03/20 11:02:28;;;;;;;3.65;1.88;;;;;;;10.51;38.47;101633.03;5010034;28;20050;-77
2023/03/20 11:04:56;;;;;;;;;;;;;;;10.23;39.14;101636.97;5019903;28;20070;-77
2023/03/20 11:07:27;;;;;;;6.05;2.33;;;;;;;10.46;39.37;101636.13;5003934;28;20297;-78
2023/03/20 11:10:15;;;;;;;4.90;2.20;;;;;;;10.49;38.45;101626.78;5012702;28;20049;-77
2023/03/20 11:12:47;;;;;;;5.53;2.13;;;;;;;10.49;39.53;101629.53;5030872;28;20041;-77
2023/03/20 11:15:21;;;;;;;5.25;2.28;;;;;;;10.49;39.23;101630.41;5008945;28;20042;-78
2023/03/20 11:17:57;;;;;;;4.32;2.10;;;;;;;10.48;38.82;101620.44;5017502;28;20046;-77
2023/03/20 11:20:26;;;;;;;4.75;1.80;;;;;;;10.46;39.29;101627.03;5018184;28;20525;-77
2023/03/20 11:22:59;;;;;;;3.47;1.75;;;;;;;10.46;38.73;101621.56;5028190;28;20134;-76
2023/03/20 11:25:34;;;;;;;4.20;1.98;;;;;;;10.43;39.46;101619.91;5011980;28;20053;-77
2023/03/20 11:28:37;;;;;;;4.60;2.30;;;;;;;10.35;39.58;101610.53;5011893;28;20119;-77
2023/03/20 11:31:15;;;;;;;4.10;2.08;;;;;;;10.39;39.54;101609.34;4981194;28;20058;-77
2023/03/20 11:33:45;;;;;;;5.60;2.40;;;;;;;10.38;39.68;101608.47;4945233;28;20047;-76
2023/03/20 11:36:22;;;;;;;5.93;2.50;;;;;;;10.41;39.18;101610.06;4983212;28;20052;-77
2023/03/20 11:38:53;;;;;;;4.47;1.98;;;;;;;10.39;39.54;101607.47;5022260;28;20064;-77
2023/03/20 11:41:26;;;;;;;6.05;2.25;;;;;;;10.41;39.73;101605.47;5024897;28;20046;-77
2023/03/20 11:43:55;;;;;;;4.70;2.15;;;;;;;10.40;39.90;101603.72;5008504;28;20052;-77
2023/03/20 11:46:24;;;;;;;5.07;2.10;;;;;;;10.40;39.55;101600.97;5028083;28;20394;-78
2023/03/20 11:49:05;;;;;;;4.80;1.83;;;;;;;10.43;38.97;101605.38;5022726;28;20057;-78
2023/03/20 11:51:36;;;;;;;3.95;1.65;;;;;;;10.40;38.97;101605.63;5020010;28;20073;-77
2023/03/20 11:54:07;;;;;;;3.13;1.60;;;;;;;10.40;39.27;101602.88;5039492;28;20045;-79